Time;durP1;ratioP1;P1;durP2;ratioP2;P2;SDS_P1;SDS_P2;PMS_P1;PMS_P2;Temp;Humidity;BMP_temperature;BMP_pressure;BME280_temperature;BME280_humidity;BME280_pressure;Samples;Min_cycle;Max_cycle;Signal;HPM_P1;HPM_P2
2022/07/07 00:00:33;;;;;;;3.95;3.75;;;;;;;;;;4990429;28;20773;-65
2022/07/07 00:02:58;;;;;;;6.65;4.65;;;;;;;;;;4991091;28;20392;-65
2022/07/07 00:05:24;;;;;;;4.70;4.40;;;;;;;;;;4988497;28;20088;-65
2022/07/07 00:07:50;;;;;;;4.85;4.43;;;;;;;;;;4991018;28;20108;-66
2022/07/07 00:10:16;;;;;;;5.18;4.72;;;;;;;;;;4990876;28;20054;-65
2022/07/07 00:12:41;;;;;;;4.82;4.45;;;;;;;;;;4990515;28;20312;-65
2022/07/07 00:15:07;;;;;;;4.57;4.28;;;;;;;;;;4990303;28;20129;-65
2022/07/07 00:17:32;;;;;;;5.28;4.07;;;;;;;;;;4991175;28;20026;-65
2022/07/07 00:19:57;;;;;;;5.38;4.97;;;;;;;;;;4990343;28;20184;-65
2022/07/07 00:22:22;;;;;;;4.88;4.57;;;;;;;;;;4990521;28;20053;-65
2022/07/07 00:24:47;;;;;;;4.95;4.43;;;;;;;;;;4989736;28;20632;-65
2022/07/07 00:27:13;;;;;;;6.38;4.68;;;;;;;;;;4990197;28;20045;-65
2022/07/07 00:29:38;;;;;;;4.65;4.05;;;;;;;;;;5005642;28;20485;-65
2022/07/07 00:32:03;;;;;;;4.80;4.13;;;;;;;;;;4989906;28;20068;-65
2022/07/07 00:34:29;;;;;;;4.47;4.18;;;;;;;;;;4989666;28;20037;-65
2022/07/07 00:36:54;;;;;;;4.57;4.28;;;;;;;;;;4989740;28;20034;-65
2022/07/07 00:39:19;;;;;;;5.40;4.20;;;;;;;;;;4989737;28;20038;-65
2022/07/07 00:41:44;;;;;;;4.32;4.03;;;;;;;;;;4989797;28;20029;-65
2022/07/07 00:44:11;;;;;;;5.28;4.88;;;;;;;;;;5005177;28;20507;-66
2022/07/07 00:46:43;;;;;;;4.68;4.05;;;;;;;;;;4989902;28;20582;-64
2022/07/07 00:49:10;;;;;;;4.80;4.40;;;;;;;;;;4990465;28;20053;-65
2022/07/07 00:51:35;;;;;;;5.28;4.90;;;;;;;;;;4989216;28;20279;-65
2022/07/07 00:54:00;;;;;;;4.50;4.10;;;;;;;;;;4990423;28;20026;-64
2022/07/07 00:56:26;;;;;;;5.97;4.82;;;;;;;;;;4991132;28;20021;-65
2022/07/07 00:58:51;;;;;;;5.53;5.05;;;;;;;;;;4990806;28;20116;-65
2022/07/07 01:01:16;;;;;;;5.50;5.10;;;;;;;;;;4989484;28;20061;-66
2022/07/07 01:03:41;;;;;;;5.60;5.10;;;;;;;;;;4990219;28;20034;-64
2022/07/07 01:06:07;;;;;;;5.85;4.90;;;;;;;;;;4988997;28;20081;-64
2022/07/07 01:08:32;;;;;;;6.95;5.00;;;;;;;;;;4989511;28;20111;-65
2022/07/07 01:10:57;;;;;;;5.03;4.63;;;;;;;;;;4988360;28;20090;-67
2022/07/07 01:13:23;;;;;;;4.72;4.35;;;;;;;;;;4989221;28;20385;-66
2022/07/07 01:15:48;;;;;;;5.43;4.72;;;;;;;;;;4988229;28;20034;-65
2022/07/07 01:18:13;;;;;;;5.05;4.65;;;;;;;;;;4988223;28;20027;-65
2022/07/07 01:20:41;;;;;;;5.07;4.60;;;;;;;;;;4988046;28;20033;-65
2022/07/07 01:23:07;;;;;;;5.40;4.93;;;;;;;;;;4989335;28;20084;-65
2022/07/07 01:25:32;;;;;;;4.60;4.30;;;;;;;;;;4987308;28;21007;-66
2022/07/07 01:27:57;;;;;;;7.07;5.10;;;;;;;;;;4988912;28;20120;-65
2022/07/07 01:30:23;;;;;;;5.70;5.30;;;;;;;;;;4988387;28;20042;-65
2022/07/07 01:32:48;;;;;;;4.95;4.45;;;;;;;;;;4989832;28;20034;-65
2022/07/07 01:35:13;;;;;;;5.07;4.60;;;;;;;;;;4986960;28;20162;-65
2022/07/07 01:37:39;;;;;;;5.15;4.75;;;;;;;;;;4987557;28;20126;-65
2022/07/07 01:40:04;;;;;;;5.32;4.80;;;;;;;;;;4989206;28;20452;-65
2022/07/07 01:42:29;;;;;;;4.60;4.30;;;;;;;;;;4988707;28;20515;-65
2022/07/07 01:44:55;;;;;;;5.25;4.75;;;;;;;;;;4987334;28;20397;-65
2022/07/07 01:47:22;;;;;;;5.25;4.68;;;;;;;;;;4987797;28;20038;-65
2022/07/07 01:49:48;;;;;;;5.30;4.85;;;;;;;;;;4989631;28;20041;-64
2022/07/07 01:52:13;;;;;;;5.10;4.68;;;;;;;;;;4989441;28;20014;-65
2022/07/07 01:54:39;;;;;;;4.97;4.68;;;;;;;;;;4987995;28;20553;-65
2022/07/07 01:57:05;;;;;;;4.80;4.47;;;;;;;;;;4989708;28;20034;-65
2022/07/07 01:59:30;;;;;;;5.05;4.75;;;;;;;;;;4988717;28;20154;-65
2022/07/07 02:01:56;;;;;;;4.82;4.35;;;;;;;;;;4988506;28;20034;-65
2022/07/07 02:04:21;;;;;;;5.68;5.15;;;;;;;;;;4989203;28;20132;-65
2022/07/07 02:06:46;;;;;;;6.28;5.00;;;;;;;;;;4987222;28;20531;-65
2022/07/07 02:09:11;;;;;;;5.93;4.53;;;;;;;;;;4990237;28;20077;-65
2022/07/07 02:11:37;;;;;;;5.05;4.65;;;;;;;;;;4989425;28;20081;-66
2022/07/07 02:14:03;;;;;;;5.15;4.60;;;;;;;;;;4987635;28;20038;-65
2022/07/07 02:16:28;;;;;;;5.13;4.72;;;;;;;;;;4988044;28;20392;-65
2022/07/07 02:18:55;;;;;;;4.93;4.53;;;;;;;;;;4988086;28;20466;-66
2022/07/07 02:21:20;;;;;;;4.72;4.35;;;;;;;;;;4988230;28;20026;-65
2022/07/07 02:23:46;;;;;;;5.47;4.97;;;;;;;;;;4987605;28;20033;-65
2022/07/07 02:26:11;;;;;;;5.93;5.10;;;;;;;;;;4986846;28;20066;-64
2022/07/07 02:28:38;;;;;;;5.28;4.40;;;;;;;;;;4988183;28;20527;-66
2022/07/07 02:31:04;;;;;;;6.40;4.90;;;;;;;;;;4989101;28;20027;-65
2022/07/07 02:33:29;;;;;;;4.50;4.20;;;;;;;;;;4987641;28;20038;-65
2022/07/07 02:35:54;;;;;;;;;;;;;;;;;;4987671;28;20610;-65
2022/07/07 02:38:20;;;;;;;;;;;;;;;;;;4990181;28;19910;-65
2022/07/07 02:40:45;;;;;;;;;;;;;;;;;;4992559;28;20360;-65
2022/07/07 02:43:13;;;;;;;;;;;;;;;;;;4993103;28;20479;-65
2022/07/07 02:45:41;;;;;;;5.60;5.10;;;;;;;;;;4994972;28;19928;-65
2022/07/07 02:48:07;;;;;;;5.90;5.28;;;;;;;;;;4992709;28;20117;-65
2022/07/07 02:50:33;;;;;;;5.05;4.75;;;;;;;;;;4992064;28;20392;-65
2022/07/07 02:52:58;;;;;;;4.80;4.40;;;;;;;;;;4991913;28;20057;-65
2022/07/07 02:55:24;;;;;;;4.97;4.57;;;;;;;;;;4991767;28;20112;-65
2022/07/07 02:57:50;;;;;;;4.90;4.45;;;;;;;;;;4989586;28;20125;-66
2022/07/07 03:00:16;;;;;;;5.05;4.60;;;;;;;;;;4991219;28;20038;-65
2022/07/07 03:02:41;;;;;;;4.88;4.50;;;;;;;;;;4992098;28;20449;-65
2022/07/07 03:05:07;;;;;;;5.60;5.15;;;;;;;;;;4989280;28;20069;-65
2022/07/07 03:07:32;;;;;;;5.15;4.30;;;;;;;;;;4990278;28;20038;-65
2022/07/07 03:09:57;;;;;;;4.55;4.20;;;;;;;;;;4990423;28;20553;-65
2022/07/07 03:12:23;;;;;;;6.15;4.28;;;;;;;;;;4992452;28;20026;-64
2022/07/07 03:14:50;;;;;;;6.00;5.35;;;;;;;;;;4990537;28;20042;-65
2022/07/07 03:17:15;;;;;;;5.30;4.90;;;;;;;;;;4989777;28;20030;-65
2022/07/07 03:19:40;;;;;;;5.75;5.13;;;;;;;;;;4990402;28;20388;-65
2022/07/07 03:22:06;;;;;;;5.32;4.85;;;;;;;;;;4990821;28;20085;-65
2022/07/07 03:24:31;;;;;;;6.43;4.60;;;;;;;;;;4992270;28;20068;-64
2022/07/07 03:26:58;;;;;;;5.32;4.88;;;;;;;;;;4992103;28;20096;-65
2022/07/07 03:29:24;;;;;;;5.30;4.88;;;;;;;;;;4991625;28;20033;-65
2022/07/07 03:31:49;;;;;;;7.03;4.50;;;;;;;;;;4989018;28;20026;-65
2022/07/07 03:34:14;;;;;;;4.55;4.25;;;;;;;;;;4989622;28;20030;-65
2022/07/07 03:36:40;;;;;;;6.65;5.82;;;;;;;;;;4990418;28;20022;-65
2022/07/07 03:39:05;;;;;;;5.00;4.70;;;;;;;;;;4991805;28;20034;-65
2022/07/07 03:41:30;;;;;;;5.53;5.05;;;;;;;;;;4990544;28;20627;-65
2022/07/07 03:43:55;;;;;;;4.93;4.53;;;;;;;;;;4991916;28;20038;-65
2022/07/07 03:46:21;;;;;;;4.82;4.53;;;;;;;;;;4991222;28;20030;-65
2022/07/07 03:48:46;;;;;;;6.13;5.40;;;;;;;;;;4989005;28;20496;-65
2022/07/07 03:51:11;;;;;;;5.22;4.82;;;;;;;;;;4992156;28;20689;-65
2022/07/07 03:53:36;;;;;;;5.88;5.25;;;;;;;;;;4991902;28;20124;-65
2022/07/07 03:56:01;;;;;;;4.95;4.63;;;;;;;;;;4989688;28;20034;-65
2022/07/07 03:58:27;;;;;;;4.88;4.47;;;;;;;;;;4991321;28;20054;-65
2022/07/07 04:00:52;;;;;;;4.80;4.50;;;;;;;;;;4990457;28;20137;-66
2022/07/07 04:03:17;;;;;;;4.82;4.45;;;;;;;;;;4988199;28;20030;-65
2022/07/07 04:05:42;;;;;;;5.10;4.70;;;;;;;;;;4990342;28;20038;-65
2022/07/07 04:08:08;;;;;;;4.78;4.38;;;;;;;;;;4989996;28;20447;-65
2022/07/07 04:10:33;;;;;;;6.72;4.35;;;;;;;;;;4989113;28;20505;-65
2022/07/07 04:12:58;;;;;;;4.32;4.03;;;;;;;;;;4991171;28;20487;-65
2022/07/07 04:15:23;;;;;;;5.68;4.75;;;;;;;;;;4990842;28;20428;-65
2022/07/07 04:17:49;;;;;;;4.47;4.18;;;;;;;;;;5003681;28;20477;-65
2022/07/07 04:20:14;;;;;;;4.75;4.35;;;;;;;;;;4989798;28;20061;-65
2022/07/07 04:22:39;;;;;;;5.38;4.38;;;;;;;;;;4990961;28;20021;-65
2022/07/07 04:25:05;;;;;;;5.03;4.63;;;;;;;;;;4988551;28;20018;-65
2022/07/07 04:27:30;;;;;;;5.25;4.93;;;;;;;;;;4988827;28;20031;-65
2022/07/07 04:29:55;;;;;;;6.00;4.35;;;;;;;;;;4989706;28;20121;-64
2022/07/07 04:32:21;;;;;;;4.50;4.22;;;;;;;;;;4990106;28;20026;-65
2022/07/07 04:34:46;;;;;;;5.35;4.95;;;;;;;;;;4989291;28;20026;-65
2022/07/07 04:37:11;;;;;;;5.28;4.78;;;;;;;;;;4989861;28;20039;-66
2022/07/07 04:39:37;;;;;;;4.78;4.38;;;;;;;;;;4988738;28;20377;-64
2022/07/07 04:42:02;;;;;;;4.88;4.47;;;;;;;;;;4990075;28;20026;-64
2022/07/07 04:44:27;;;;;;;4.57;4.28;;;;;;;;;;4989793;28;20073;-64
2022/07/07 04:46:53;;;;;;;4.60;4.40;;;;;;;;;;4990445;28;20351;-65
2022/07/07 04:49:18;;;;;;;4.68;4.38;;;;;;;;;;4988512;28;20042;-65
2022/07/07 04:51:43;;;;;;;5.00;4.70;;;;;;;;;;4991101;28;20050;-64
2022/07/07 04:54:09;;;;;;;4.43;4.13;;;;;;;;;;4989446;28;20034;-63
2022/07/07 04:56:34;;;;;;;4.68;4.38;;;;;;;;;;4988766;28;20023;-63
2022/07/07 04:58:59;;;;;;;4.93;4.43;;;;;;;;;;4989147;28;20093;-64
2022/07/07 05:01:24;;;;;;;4.50;4.20;;;;;;;;;;4974094;28;20106;-64
2022/07/07 05:03:50;;;;;;;4.70;4.35;;;;;;;;;;4989532;28;20041;-66
2022/07/07 05:06:15;;;;;;;4.72;4.43;;;;;;;;;;4989584;28;20030;-66
2022/07/07 05:08:41;;;;;;;5.78;4.90;;;;;;;;;;4989991;28;20121;-65
2022/07/07 05:11:06;;;;;;;4.93;4.55;;;;;;;;;;4988704;28;20046;-64
2022/07/07 05:13:31;;;;;;;5.47;5.00;;;;;;;;;;4988809;28;20127;-64
2022/07/07 05:15:56;;;;;;;4.82;4.53;;;;;;;;;;4989788;28;20073;-64
2022/07/07 05:18:22;;;;;;;5.45;5.00;;;;;;;;;;4987369;28;20026;-64
2022/07/07 05:20:47;;;;;;;5.90;5.30;;;;;;;;;;4988770;28;20480;-66
2022/07/07 05:23:13;;;;;;;4.80;4.50;;;;;;;;;;4989422;28;20325;-65
2022/07/07 05:25:38;;;;;;;4.65;4.25;;;;;;;;;;4989117;28;20503;-64
2022/07/07 05:28:03;;;;;;;5.80;4.82;;;;;;;;;;4988333;28;20041;-64
2022/07/07 05:30:29;;;;;;;10.50;4.50;;;;;;;;;;4988146;28;20077;-65
2022/07/07 05:32:54;;;;;;;7.15;4.88;;;;;;;;;;4988674;28;20556;-64
2022/07/07 05:35:20;;;;;;;4.40;4.00;;;;;;;;;;4988933;28;20113;-65
2022/07/07 05:37:46;;;;;;;5.78;4.90;;;;;;;;;;4988556;28;20038;-64
2022/07/07 05:40:12;;;;;;;4.55;4.25;;;;;;;;;;4987488;28;20030;-64
2022/07/07 05:42:37;;;;;;;5.72;4.68;;;;;;;;;;4990057;28;20403;-65
2022/07/07 05:45:03;;;;;;;4.97;4.53;;;;;;;;;;4989169;28;20084;-64
2022/07/07 05:47:28;;;;;;;5.32;4.88;;;;;;;;;;4988012;28;20046;-65
2022/07/07 05:49:54;;;;;;;5.38;4.53;;;;;;;;;;4987203;28;20501;-65
2022/07/07 05:52:19;;;;;;;4.32;4.13;;;;;;;;;;4988010;28;20154;-64
2022/07/07 05:54:44;;;;;;;4.55;4.15;;;;;;;;;;4989186;28;20542;-64
2022/07/07 05:57:09;;;;;;;5.20;4.50;;;;;;;;;;4986789;28;20061;-64
2022/07/07 05:59:35;;;;;;;4.32;4.13;;;;;;;;;;4987949;28;20339;-64
2022/07/07 06:02:00;;;;;;;4.78;4.47;;;;;;;;;;5003358;28;20088;-64
2022/07/07 06:04:26;;;;;;;4.68;4.25;;;;;;;;;;4987665;28;20120;-64
2022/07/07 06:06:51;;;;;;;5.28;4.78;;;;;;;;;;4987106;28;20557;-64
2022/07/07 06:09:18;;;;;;;4.63;4.22;;;;;;;;;;4988540;28;20204;-65
2022/07/07 06:11:43;;;;;;;4.30;4.07;;;;;;;;;;4986284;28;20413;-65
2022/07/07 06:14:08;;;;;;;4.20;3.90;;;;;;;;;;4987748;28;20464;-67
2022/07/07 06:16:41;;;;;;;5.93;4.40;;;;;;;;;;4988322;28;20041;-65
2022/07/07 06:19:10;;;;;;;5.07;4.55;;;;;;;;;;4988966;28;20483;-67
2022/07/07 06:21:36;;;;;;;5.07;4.65;;;;;;;;;;4987184;28;20370;-65
2022/07/07 06:24:02;;;;;;;6.18;3.85;;;;;;;;;;4988711;28;20061;-66
2022/07/07 06:26:27;;;;;;;5.05;4.50;;;;;;;;;;4988355;28;20125;-65
2022/07/07 06:28:52;;;;;;;4.13;3.83;;;;;;;;;;5002413;28;20030;-66
2022/07/07 06:31:18;;;;;;;5.18;4.57;;;;;;;;;;4987187;28;20038;-66
2022/07/07 06:33:43;;;;;;;4.47;4.07;;;;;;;;;;4987141;28;20026;-65
2022/07/07 06:36:08;;;;;;;4.97;4.15;;;;;;;;;;4987512;28;20038;-65
2022/07/07 06:38:33;;;;;;;4.47;4.10;;;;;;;;;;4989034;28;20128;-65
2022/07/07 06:40:59;;;;;;;6.60;4.43;;;;;;;;;;4987056;28;20022;-66
2022/07/07 06:43:25;;;;;;;7.80;4.82;;;;;;;;;;4986200;28;20041;-65
2022/07/07 06:45:50;;;;;;;6.60;4.30;;;;;;;;;;4987066;28;20049;-66
2022/07/07 06:48:15;;;;;;;4.07;3.78;;;;;;;;;;4988251;28;20124;-65
2022/07/07 06:50:40;;;;;;;3.95;3.60;;;;;;;;;;4989368;28;20049;-65
2022/07/07 06:53:06;;;;;;;4.10;3.55;;;;;;;;;;4988240;28;20034;-65
2022/07/07 06:55:31;;;;;;;4.70;3.90;;;;;;;;;;5004288;28;20548;-66
2022/07/07 06:57:56;;;;;;;4.18;3.88;;;;;;;;;;4988537;28;20026;-65
2022/07/07 07:00:21;;;;;;;3.53;3.22;;;;;;;;;;4988649;28;20077;-65
2022/07/07 07:02:48;;;;;;;3.35;3.15;;;;;;;;;;4987743;28;20027;-66
2022/07/07 07:05:14;;;;;;;4.95;3.17;;;;;;;;;;4989988;28;20519;-65
2022/07/07 07:07:39;;;;;;;4.13;3.70;;;;;;;;;;5002955;28;20034;-65
2022/07/07 07:10:05;;;;;;;3.38;3.10;;;;;;;;;;4987321;28;20116;-65
2022/07/07 07:12:30;;;;;;;2.80;2.60;;;;;;;;;;4987820;28;20070;-65
2022/07/07 07:14:59;;;;;;;2.90;2.70;;;;;;;;;;4986172;28;20057;-66
2022/07/07 07:17:24;;;;;;;3.88;2.92;;;;;;;;;;4985761;28;20031;-65
2022/07/07 07:19:50;;;;;;;4.60;3.10;;;;;;;;;;4988071;28;20034;-66
2022/07/07 07:22:15;;;;;;;3.97;3.53;;;;;;;;;;4988785;28;20041;-65
2022/07/07 07:24:40;;;;;;;3.80;2.65;;;;;;;;;;4990363;28;20143;-66
2022/07/07 07:27:06;;;;;;;2.88;2.67;;;;;;;;;;4988903;28;20026;-65
2022/07/07 07:29:31;;;;;;;4.50;2.55;;;;;;;;;;4991195;28;20072;-66
2022/07/07 07:31:56;;;;;;;2.70;2.50;;;;;;;;;;4991494;28;20034;-65
2022/07/07 07:34:21;;;;;;;4.30;2.40;;;;;;;;;;4991224;28;20080;-65
2022/07/07 07:36:47;;;;;;;3.28;2.92;;;;;;;;;;4990772;28;20376;-65
2022/07/07 07:39:12;;;;;;;2.95;2.75;;;;;;;;;;4991594;28;20072;-66
2022/07/07 07:41:38;;;;;;;2.80;2.60;;;;;;;;;;4990427;28;20137;-66
2022/07/07 07:44:03;;;;;;;3.30;3.00;;;;;;;;;;4991269;28;20511;-66
2022/07/07 07:46:28;;;;;;;4.38;2.22;;;;;;;;;;4989465;28;20085;-65
2022/07/07 07:48:54;;;;;;;2.78;2.28;;;;;;;;;;4990290;28;20057;-66
2022/07/07 07:51:19;;;;;;;4.55;2.25;;;;;;;;;;4991027;28;20045;-67
2022/07/07 07:53:44;;;;;;;3.63;2.65;;;;;;;;;;4990700;28;20406;-65
2022/07/07 07:56:10;;;;;;;3.13;2.83;;;;;;;;;;4992228;28;20523;-65
2022/07/07 07:58:35;;;;;;;2.30;2.08;;;;;;;;;;4989732;28;20576;-66
2022/07/07 08:01:00;;;;;;;2.45;2.20;;;;;;;;;;4988772;28;20548;-65
2022/07/07 08:03:25;;;;;;;2.60;2.50;;;;;;;;;;4989376;28;20088;-65
2022/07/07 08:05:51;;;;;;;4.63;2.47;;;;;;;;;;4990910;28;20104;-66
2022/07/07 08:08:16;;;;;;;2.58;2.38;;;;;;;;;;4989707;28;20030;-65
2022/07/07 08:10:41;;;;;;;4.60;2.40;;;;;;;;;;4990654;28;20444;-65
2022/07/07 08:13:07;;;;;;;3.10;2.50;;;;;;;;;;4989985;28;20064;-66
2022/07/07 08:15:32;;;;;;;4.35;2.45;;;;;;;;;;4991398;28;20034;-66
2022/07/07 08:17:57;;;;;;;2.55;2.08;;;;;;;;;;5004942;28;20037;-65
2022/07/07 08:20:23;;;;;;;2.78;2.67;;;;;;;;;;4990053;28;20049;-64
2022/07/07 08:22:48;;;;;;;3.20;2.60;;;;;;;;;;4990625;28;20610;-65
2022/07/07 08:25:13;;;;;;;2.95;2.58;;;;;;;;;;4990450;28;20033;-65
2022/07/07 08:27:39;;;;;;;2.53;2.17;;;;;;;;;;4989119;28;20053;-65
2022/07/07 08:30:05;;;;;;;2.90;2.70;;;;;;;;;;4989349;28;20496;-65
2022/07/07 08:32:30;;;;;;;2.65;2.45;;;;;;;;;;4989391;28;20038;-66
2022/07/07 08:34:56;;;;;;;2.22;2.03;;;;;;;;;;4990587;28;20041;-65
2022/07/07 08:37:21;;;;;;;3.08;2.63;;;;;;;;;;4989461;28;20030;-66
2022/07/07 08:39:46;;;;;;;2.70;2.50;;;;;;;;;;4990087;28;20029;-65
2022/07/07 08:42:12;;;;;;;3.15;2.40;;;;;;;;;;4989507;28;20109;-65
2022/07/07 08:44:37;;;;;;;2.50;2.40;;;;;;;;;;4989420;28;20048;-65
2022/07/07 08:47:03;;;;;;;4.97;2.78;;;;;;;;;;4989287;28;20026;-65
2022/07/07 08:49:48;;;;;;;2.67;2.47;;;;;;;;;;4982714;28;20049;-65
2022/07/07 08:52:14;;;;;;;4.15;3.00;;;;;;;;;;4989213;28;20030;-66
2022/07/07 08:54:41;;;;;;;4.63;2.80;;;;;;;;;;4988746;28;20038;-65
2022/07/07 08:57:07;;;;;;;4.10;2.33;;;;;;;;;;4989670;28;20033;-65
2022/07/07 08:59:33;;;;;;;2.63;2.40;;;;;;;;;;4989676;28;20547;-65
2022/07/07 09:01:59;;;;;;;2.90;2.72;;;;;;;;;;4990457;28;20113;-66
2022/07/07 09:04:24;;;;;;;2.47;2.28;;;;;;;;;;4990415;28;20214;-65
2022/07/07 09:07:04;;;;;;;3.53;2.38;;;;;;;;;;4989934;28;20053;-65
2022/07/07 09:09:35;;;;;;;2.53;2.30;;;;;;;;;;4982148;28;20060;-65
2022/07/07 09:12:01;;;;;;;4.35;2.75;;;;;;;;;;4989371;28;20541;-65
2022/07/07 09:14:33;;;;;;;4.97;2.67;;;;;;;;;;4989429;28;20041;-66
2022/07/07 09:16:59;;;;;;;3.35;2.80;;;;;;;;;;4991909;28;20034;-65
2022/07/07 09:19:24;;;;;;;2.92;2.75;;;;;;;;;;4990772;28;20045;-66
2022/07/07 09:21:49;;;;;;;6.70;2.60;;;;;;;;;;4989616;28;20030;-66
2022/07/07 09:24:15;;;;;;;3.80;2.70;;;;;;;;;;4988347;28;20022;-66
2022/07/07 09:26:40;;;;;;;2.55;2.38;;;;;;;;;;4989278;28;20030;-69
2022/07/07 09:29:06;;;;;;;3.03;2.20;;;;;;;;;;4988885;28;20030;-65
2022/07/07 09:31:50;;;;;;;2.95;2.17;;;;;;;;;;4988335;28;20026;-65
2022/07/07 09:34:16;;;;;;;2.90;2.58;;;;;;;;;;4989052;28;20133;-65
2022/07/07 09:39:37;;;;;;;3.03;2.75;;;;;;;;;;4988677;28;20631;-66
2022/07/07 09:42:16;;;;;;;2.75;2.50;;;;;;;;;;4988607;28;20037;-65
2022/07/07 09:44:41;;;;;;;3.10;2.90;;;;;;;;;;4988990;28;20117;-65
2022/07/07 09:47:09;;;;;;;3.00;2.78;;;;;;;;;;4986550;28;20052;-65
2022/07/07 09:49:40;;;;;;;2.60;2.50;;;;;;;;;;4986897;28;20042;-64
2022/07/07 09:52:17;;;;;;;2.88;2.63;;;;;;;;;;4988108;28;20113;-65
2022/07/07 09:54:47;;;;;;;3.08;2.75;;;;;;;;;;4987747;28;20056;-65
2022/07/07 09:57:12;;;;;;;3.95;2.38;;;;;;;;;;4986407;28;20092;-64
2022/07/07 09:59:38;;;;;;;6.65;2.70;;;;;;;;;;4989460;28;20451;-64
2022/07/07 10:02:04;;;;;;;5.13;2.35;;;;;;;;;;4988019;28;20039;-65
2022/07/07 10:04:29;;;;;;;2.60;2.50;;;;;;;;;;4987852;28;20080;-64
2022/07/07 10:06:57;;;;;;;3.00;2.38;;;;;;;;;;4987996;28;20114;-64
2022/07/07 10:09:25;;;;;;;3.15;2.92;;;;;;;;;;4987181;28;20074;-65
2022/07/07 10:11:51;;;;;;;2.83;2.45;;;;;;;;;;4988517;28;20034;-65
2022/07/07 10:14:19;;;;;;;3.05;2.75;;;;;;;;;;4989492;28;20037;-65
2022/07/07 10:16:46;;;;;;;5.30;2.63;;;;;;;;;;4987400;28;20488;-65
2022/07/07 10:19:12;;;;;;;2.83;2.55;;;;;;;;;;4988031;28;20026;-65
2022/07/07 10:21:42;;;;;;;2.45;2.35;;;;;;;;;;4988200;28;20377;-66
2022/07/07 10:24:08;;;;;;;2.50;2.30;;;;;;;;;;4986967;28;20051;-65
2022/07/07 10:26:37;;;;;;;2.40;2.20;;;;;;;;;;4985778;28;20104;-65
2022/07/07 10:29:03;;;;;;;3.38;2.35;;;;;;;;;;4987416;28;20132;-64
2022/07/07 10:31:29;;;;;;;2.70;2.50;;;;;;;;;;4986349;28;20034;-65
2022/07/07 10:34:15;;;;;;;3.53;3.22;;;;;;;;;;4988669;28;20069;-65
2022/07/07 10:36:46;;;;;;;3.63;2.70;;;;;;;;;;4987723;28;20120;-65
2022/07/07 10:39:12;;;;;;;3.13;2.80;;;;;;;;;;4987997;28;20467;-65
2022/07/07 10:41:39;;;;;;;3.25;2.95;;;;;;;;;;4988042;28;20038;-64
2022/07/07 10:44:05;;;;;;;3.53;3.22;;;;;;;;;;4987834;28;20030;-65
2022/07/07 10:46:31;;;;;;;3.47;2.78;;;;;;;;;;4986652;28;20034;-65
2022/07/07 10:49:07;;;;;;;2.92;2.72;;;;;;;;;;4989223;28;20542;-65
2022/07/07 10:51:32;;;;;;;6.97;2.90;;;;;;;;;;4987303;28;20033;-66
2022/07/07 10:54:06;;;;;;;3.60;3.30;;;;;;;;;;4988494;28;20483;-64
2022/07/07 10:56:50;;;;;;;6.50;2.97;;;;;;;;;;4986467;28;20056;-64
2022/07/07 10:59:15;;;;;;;3.50;3.20;;;;;;;;;;4990747;28;20173;-66
2022/07/07 11:02:00;;;;;;;3.63;2.58;;;;;;;;;;4991176;28;20026;-65
2022/07/07 11:04:41;;;;;;;3.40;3.10;;;;;;;;;;4992012;28;20565;-66
2022/07/07 11:07:10;;;;;;;3.60;3.30;;;;;;;;;;4990671;28;20088;-65
2022/07/07 11:10:01;;;;;;;3.55;3.17;;;;;;;;;;4991910;28;20086;-65
2022/07/07 11:12:38;;;;;;;3.88;3.50;;;;;;;;;;4915106;29;20085;-65
2022/07/07 11:15:33;;;;;;;4.05;3.58;;;;;;;;;;4915542;29;20032;-65
2022/07/07 11:18:00;;;;;;;6.63;3.35;;;;;;;;;;4911381;29;20047;-65
2022/07/07 11:20:27;;;;;;;3.97;3.15;;;;;;;;;;4914863;29;20039;-65
2022/07/07 11:22:54;;;;;;;5.78;3.17;;;;;;;;;;4915478;29;20035;-65
2022/07/07 11:25:20;;;;;;;5.75;3.58;;;;;;;;;;4915504;29;20697;-66
2022/07/07 11:27:49;;;;;;;3.38;3.08;;;;;;;;;;4913372;29;20503;-65
2022/07/07 11:30:15;;;;;;;4.43;3.97;;;;;;;;;;4916496;29;20582;-65
2022/07/07 11:32:41;;;;;;;3.78;3.45;;;;;;;;;;4914646;29;20031;-65
2022/07/07 11:35:10;;;;;;;4.07;3.78;;;;;;;;;;4914451;29;20108;-64
2022/07/07 11:37:39;;;;;;;6.53;4.18;;;;;;;;;;4915707;29;20776;-65
2022/07/07 11:40:05;;;;;;;3.85;3.55;;;;;;;;;;4915590;29;20531;-65
2022/07/07 11:42:35;;;;;;;6.03;3.30;;;;;;;;;;4916102;29;20151;-64
2022/07/07 11:45:00;;;;;;;3.95;3.65;;;;;;;;;;4913013;29;20051;-65
2022/07/07 11:47:25;;;;;;;4.13;3.83;;;;;;;;;;4914527;29;20024;-64
2022/07/07 11:49:53;;;;;;;3.75;3.45;;;;;;;;;;4970570;28;20124;-64
2022/07/07 11:52:23;;;;;;;5.53;4.10;;;;;;;;;;4990428;28;20022;-64
2022/07/07 11:54:48;;;;;;;4.45;4.13;;;;;;;;;;4989349;28;20481;-64
2022/07/07 11:57:26;;;;;;;4.32;4.00;;;;;;;;;;4991247;28;20023;-65
2022/07/07 11:59:51;;;;;;;4.50;3.97;;;;;;;;;;4989450;28;20046;-65
2022/07/07 12:02:19;;;;;;;5.75;3.92;;;;;;;;;;4990137;28;20402;-65
2022/07/07 12:04:45;;;;;;;6.07;4.10;;;;;;;;;;4989532;28;20385;-65
2022/07/07 12:07:10;;;;;;;5.47;4.82;;;;;;;;;;4988806;28;20080;-65
2022/07/07 12:09:35;;;;;;;5.65;4.65;;;;;;;;;;4989883;28;20490;-66
2022/07/07 12:12:02;;;;;;;4.78;4.38;;;;;;;;;;4990154;28;20065;-63
2022/07/07 12:14:27;;;;;;;9.30;4.93;;;;;;;;;;4990975;28;20038;-64
2022/07/07 12:16:52;;;;;;;5.82;5.15;;;;;;;;;;4979563;28;20432;-65
2022/07/07 12:19:21;;;;;;;5.50;5.00;;;;;;;;;;4989736;28;20526;-65
2022/07/07 12:21:47;;;;;;;7.90;4.85;;;;;;;;;;4989471;28;20106;-64
2022/07/07 12:24:13;;;;;;;5.20;4.75;;;;;;;;;;4989617;28;20408;-64
2022/07/07 12:26:47;;;;;;;5.50;5.00;;;;;;;;;;4990754;28;20132;-65
2022/07/07 12:29:12;;;;;;;5.00;4.60;;;;;;;;;;4991611;28;20085;-65
2022/07/07 12:31:37;;;;;;;5.30;4.80;;;;;;;;;;4990270;28;20490;-65
2022/07/07 12:34:12;;;;;;;7.30;5.07;;;;;;;;;;4989356;28;20397;-65
2022/07/07 12:36:38;;;;;;;5.47;5.00;;;;;;;;;;4989456;28;20092;-65
2022/07/07 12:39:04;;;;;;;12.48;4.95;;;;;;;;;;4989927;28;20276;-65
2022/07/07 12:41:32;;;;;;;7.63;4.80;;;;;;;;;;4990885;28;20160;-65
2022/07/07 12:44:17;;;;;;;4.93;4.45;;;;;;;;;;4990183;28;20116;-65
2022/07/07 12:46:43;;;;;;;5.10;4.63;;;;;;;;;;4992075;28;20040;-64
2022/07/07 12:49:08;;;;;;;5.05;4.65;;;;;;;;;;4989297;28;20038;-65
2022/07/07 12:51:34;;;;;;;6.13;4.38;;;;;;;;;;4989374;28;20022;-64
2022/07/07 12:54:00;;;;;;;6.25;4.28;;;;;;;;;;5004921;28;20022;-64
2022/07/07 12:56:35;;;;;;;4.75;4.43;;;;;;;;;;4989009;28;20022;-65
2022/07/07 12:59:01;;;;;;;5.20;4.50;;;;;;;;;;4989110;28;20034;-65
2022/07/07 13:01:27;;;;;;;5.68;4.18;;;;;;;;;;4988624;28;20026;-64
2022/07/07 13:03:54;;;;;;;5.07;4.68;;;;;;;;;;4987489;28;20026;-65
2022/07/07 13:06:20;;;;;;;4.85;4.55;;;;;;;;;;4989315;28;20509;-66
2022/07/07 13:08:46;;;;;;;4.32;4.03;;;;;;;;;;4988820;28;20034;-65
2022/07/07 13:11:11;;;;;;;4.95;4.45;;;;;;;;;;4990503;28;20034;-65
2022/07/07 13:13:37;;;;;;;6.72;3.72;;;;;;;;;;4989765;28;20031;-65
2022/07/07 13:16:03;;;;;;;4.15;3.90;;;;;;;;;;4988787;28;20034;-64
2022/07/07 13:18:28;;;;;;;4.63;4.13;;;;;;;;;;4989131;28;20030;-65
2022/07/07 13:20:54;;;;;;;5.97;4.30;;;;;;;;;;4987704;28;20594;-65
2022/07/07 13:23:19;;;;;;;3.70;3.45;;;;;;;;;;4990097;28;20129;-65
2022/07/07 13:25:44;;;;;;;4.40;4.00;;;;;;;;;;4989152;28;20045;-65
2022/07/07 13:28:10;;;;;;;6.57;3.40;;;;;;;;;;4989540;28;20178;-64
2022/07/07 13:30:35;;;;;;;9.25;4.00;;;;;;;;;;4988103;28;20034;-65
2022/07/07 13:33:00;;;;;;;3.85;3.60;;;;;;;;;;4988158;28;20023;-64
2022/07/07 13:35:25;;;;;;;7.75;3.97;;;;;;;;;;4988376;28;20037;-65
2022/07/07 13:37:51;;;;;;;4.50;4.20;;;;;;;;;;4989055;28;20049;-65
2022/07/07 13:40:16;;;;;;;4.35;3.90;;;;;;;;;;4988422;28;20439;-65
2022/07/07 13:42:41;;;;;;;4.10;3.70;;;;;;;;;;4988964;28;20493;-65
2022/07/07 13:45:07;;;;;;;5.53;4.35;;;;;;;;;;4987675;28;20034;-66
2022/07/07 13:47:32;;;;;;;4.45;4.00;;;;;;;;;;4986731;28;20037;-66
2022/07/07 13:49:59;;;;;;;3.75;3.45;;;;;;;;;;4989037;28;20113;-65
2022/07/07 13:52:24;;;;;;;3.83;3.38;;;;;;;;;;4988271;28;20081;-65
2022/07/07 13:54:50;;;;;;;4.65;3.88;;;;;;;;;;4989073;28;20034;-65
2022/07/07 13:57:15;;;;;;;3.80;3.60;;;;;;;;;;5003110;28;20124;-65
2022/07/07 13:59:40;;;;;;;3.80;3.45;;;;;;;;;;4989939;28;20469;-64
2022/07/07 14:02:05;;;;;;;5.20;4.72;;;;;;;;;;4987974;28;20104;-65
2022/07/07 14:04:31;;;;;;;4.85;3.55;;;;;;;;;;4987706;28;20109;-65
2022/07/07 14:06:56;;;;;;;5.28;4.72;;;;;;;;;;4988676;28;20525;-64
2022/07/07 14:09:21;;;;;;;4.13;3.83;;;;;;;;;;4989226;28;20054;-65
2022/07/07 14:11:46;;;;;;;6.13;4.60;;;;;;;;;;4988018;28;20030;-65
2022/07/07 14:14:12;;;;;;;4.40;3.65;;;;;;;;;;4987143;28;20022;-65
2022/07/07 14:16:37;;;;;;;6.80;4.07;;;;;;;;;;4987679;28;20085;-66
2022/07/07 14:19:02;;;;;;;4.20;3.80;;;;;;;;;;4987664;28;20485;-64
2022/07/07 14:21:28;;;;;;;3.83;3.55;;;;;;;;;;4987760;28;20081;-64
2022/07/07 14:23:53;;;;;;;4.70;4.18;;;;;;;;;;4987667;28;20116;-65
2022/07/07 14:26:18;;;;;;;8.68;4.70;;;;;;;;;;4987807;28;20084;-65
2022/07/07 14:28:43;;;;;;;4.82;3.85;;;;;;;;;;4988053;28;20030;-65
2022/07/07 14:31:09;;;;;;;3.80;3.47;;;;;;;;;;4987905;28;20114;-64
2022/07/07 14:33:34;;;;;;;3.38;3.10;;;;;;;;;;4987701;28;20073;-64
2022/07/07 14:35:59;;;;;;;3.90;3.35;;;;;;;;;;4988667;28;20065;-65
2022/07/07 14:38:24;;;;;;;4.28;3.88;;;;;;;;;;4985477;28;20395;-66
2022/07/07 14:40:50;;;;;;;5.40;3.30;;;;;;;;;;4989011;28;20040;-65